createdAt,value
2022-11-05T00:00:44.553Z,0.0
2022-11-05T00:05:45.290Z,0.0
2022-11-05T00:08:15.867Z,0.0
2022-11-05T00:11:06.489Z,0.0
2022-11-05T00:13:37.101Z,0.0
2022-11-05T00:16:07.698Z,0.0
2022-11-05T00:18:38.277Z,0.0
2022-11-05T00:21:08.880Z,0.0
2022-11-05T00:23:49.455Z,0.0
2022-11-05T00:26:20.072Z,0.0
2022-11-05T00:28:50.684Z,0.0
2022-11-05T00:31:21.288Z,0.0
2022-11-05T00:33:51.889Z,0.0
2022-11-05T00:36:22.494Z,0.0
2022-11-05T00:39:03.108Z,0.0
2022-11-05T00:41:33.732Z,0.0
2022-11-05T00:46:34.464Z,0.0
2022-11-05T00:49:05.039Z,0.0
2022-11-05T00:51:35.647Z,0.0
2022-11-05T00:54:16.261Z,0.0
2022-11-05T00:56:46.842Z,0.0
2022-11-05T00:59:17.444Z,0.0
2022-11-05T01:01:48.445Z,0.0
2022-11-05T01:04:19.098Z,0.0
2022-11-05T01:06:49.649Z,0.0
2022-11-05T01:09:30.256Z,0.0
2022-11-05T01:12:00.882Z,0.0
2022-11-05T01:14:31.475Z,0.0
2022-11-05T01:17:02.093Z,0.0
2022-11-05T01:19:32.667Z,0.0
2022-11-05T01:22:13.268Z,0.0
2022-11-05T01:27:14.009Z,0.0
2022-11-05T01:29:44.616Z,0.0
2022-11-05T01:32:15.217Z,0.0
2022-11-05T01:34:45.797Z,0.0
2022-11-05T01:37:26.408Z,0.0
2022-11-05T01:39:56.983Z,0.0
2022-11-05T01:42:27.573Z,0.0
2022-11-05T01:44:58.156Z,0.0
2022-11-05T01:47:28.750Z,0.0
2022-11-05T01:49:59.345Z,0.0
2022-11-05T01:52:39.940Z,0.0
2022-11-05T01:55:10.530Z,0.0
2022-11-05T01:57:41.103Z,0.0
2022-11-05T02:00:11.687Z,0.0
2022-11-05T02:02:42.867Z,0.0
2022-11-05T02:07:53.663Z,0.0
2022-11-05T02:10:24.255Z,0.0
2022-11-05T02:12:54.838Z,0.0
2022-11-05T02:15:25.451Z,0.0
2022-11-05T02:17:56.026Z,0.0
2022-11-05T02:20:26.610Z,0.0
2022-11-05T02:23:07.190Z,0.0
2022-11-05T02:25:37.776Z,0.0
2022-11-05T02:28:08.385Z,0.0
2022-11-05T02:30:48.979Z,0.0
2022-11-05T02:33:20.167Z,0.0
2022-11-05T02:35:50.755Z,0.0
2022-11-05T02:38:31.364Z,0.0
2022-11-05T02:41:02.011Z,0.0
2022-11-05T02:43:32.932Z,0.0
2022-11-05T02:48:33.671Z,0.0
2022-11-05T02:51:14.301Z,0.0
2022-11-05T02:53:44.905Z,0.0
2022-11-05T02:56:15.493Z,0.0
2022-11-05T02:58:46.089Z,0.0
2022-11-05T03:01:16.825Z,0.0
2022-11-05T03:03:47.533Z,0.0
2022-11-05T03:06:28.119Z,0.0
2022-11-05T03:08:58.710Z,0.0
2022-11-05T03:11:29.294Z,0.0
2022-11-05T03:13:59.884Z,0.0
2022-11-05T03:16:30.494Z,0.0
2022-11-05T03:19:01.107Z,0.0
2022-11-05T03:21:41.732Z,0.0
2022-11-05T03:24:12.296Z,0.0
2022-11-05T03:29:13.023Z,0.0
2022-11-05T03:31:43.610Z,0.0
2022-11-05T03:34:14.187Z,0.0
2022-11-05T03:36:54.805Z,0.0
2022-11-05T03:39:25.398Z,0.0
2022-11-05T03:41:55.997Z,0.0
2022-11-05T03:44:26.590Z,0.0
2022-11-05T03:46:57.175Z,0.0
2022-11-05T03:49:37.751Z,0.0
2022-11-05T03:52:08.903Z,0.0
2022-11-05T03:54:39.500Z,0.0
2022-11-05T03:57:10.088Z,0.0
2022-11-05T03:59:40.693Z,0.0
2022-11-05T04:02:11.745Z,0.0
2022-11-05T04:04:52.409Z,0.0
2022-11-05T04:09:53.124Z,0.0
2022-11-05T04:12:23.736Z,0.0
2022-11-05T04:14:54.338Z,0.0
2022-11-05T04:17:24.928Z,0.0
2022-11-05T04:20:05.511Z,0.0
2022-11-05T04:22:36.068Z,0.0
2022-11-05T04:25:06.687Z,0.0
2022-11-05T04:27:37.314Z,0.0
2022-11-05T04:30:07.910Z,0.0
2022-11-05T04:32:38.498Z,0.0
2022-11-05T04:35:19.093Z,0.0
2022-11-05T04:40:19.841Z,0.0
2022-11-05T04:42:50.441Z,0.0
2022-11-05T04:45:21.025Z,0.0
2022-11-05T04:50:41.784Z,0.0
2022-11-05T04:53:12.689Z,0.0
2022-11-05T04:55:33.474Z,0.0
2022-11-05T04:58:14.051Z,0.0
2022-11-05T05:00:44.782Z,0.0
2022-11-05T05:03:25.450Z,0.0
2022-11-05T05:05:59.452Z,0.0
2022-11-05T05:08:22.954Z,0.0
2022-11-05T05:10:53.543Z,0.0
2022-11-05T05:13:24.298Z,0.0
2022-11-05T05:15:54.974Z,0.0
2022-11-05T05:18:35.584Z,0.0
2022-11-05T05:21:06.199Z,0.0
2022-11-05T05:23:36.784Z,0.0
2022-11-05T05:26:07.385Z,0.0
2022-11-05T05:31:09.069Z,0.0
2022-11-05T05:33:49.636Z,0.0
2022-11-05T05:36:21.749Z,0.0
2022-11-05T05:38:52.368Z,0.0
2022-11-05T05:41:22.981Z,0.0
2022-11-05T05:43:53.559Z,0.0
2022-11-05T05:46:24.167Z,0.0
2022-11-05T05:49:09.509Z,0.0
2022-11-05T05:51:31.842Z,0.0
2022-11-05T05:54:02.414Z,0.0
2022-11-05T05:56:33.006Z,0.0
2022-11-05T05:59:03.595Z,0.0
2022-11-05T06:01:44.621Z,0.0
2022-11-05T06:06:45.392Z,0.0
2022-11-05T06:11:56.152Z,0.0
2022-11-05T06:14:26.760Z,0.0
2022-11-05T06:17:07.383Z,0.0
2022-11-05T06:19:37.953Z,0.0
2022-11-05T06:22:08.537Z,0.0
2022-11-05T06:24:39.135Z,0.0
2022-11-05T06:27:09.742Z,0.0
2022-11-05T06:29:40.347Z,0.0
2022-11-05T06:32:20.937Z,0.0
2022-11-05T06:34:51.542Z,0.0
2022-11-05T06:37:22.133Z,0.0
2022-11-05T06:39:52.749Z,0.0
2022-11-05T06:42:38.346Z,0.0
2022-11-05T06:44:48.924Z,0.0
2022-11-05T06:47:29.534Z,0.0
2022-11-05T06:52:30.278Z,0.0
2022-11-05T06:55:00.863Z,0.0
2022-11-05T06:57:31.445Z,0.0
2022-11-05T07:00:18.415Z,0.0
2022-11-05T07:02:49.074Z,0.0
2022-11-05T07:05:19.700Z,0.0
2022-11-05T07:07:50.262Z,0.0
2022-11-05T07:10:20.863Z,0.0
2022-11-05T07:12:51.472Z,0.0
2022-11-05T07:15:32.097Z,0.0
2022-11-05T07:18:02.669Z,0.0
2022-11-05T07:20:34.051Z,0.0
2022-11-05T07:23:05.084Z,0.0
2022-11-05T07:25:35.686Z,0.0
2022-11-05T07:28:06.287Z,0.0
2022-11-05T07:33:17.024Z,0.0
2022-11-05T07:35:47.633Z,0.0
2022-11-05T07:38:18.184Z,0.0
2022-11-05T07:40:48.798Z,0.0
2022-11-05T07:43:19.930Z,0.0
2022-11-05T07:46:00.531Z,0.0
2022-11-05T07:48:31.142Z,0.0
2022-11-05T07:51:01.774Z,0.0
2022-11-05T07:53:32.877Z,0.0
2022-11-05T07:56:03.469Z,0.0
2022-11-05T07:58:34.064Z,0.0
2022-11-05T08:01:15.114Z,0.0
2022-11-05T08:03:46.204Z,0.0
2022-11-05T08:06:16.929Z,3.0
2022-11-05T08:08:47.499Z,0.8
2022-11-05T08:13:58.284Z,0.0
2022-11-05T08:16:28.990Z,0.0
2022-11-05T08:18:59.561Z,0.0
2022-11-05T08:21:30.143Z,0.0
2022-11-05T08:24:00.753Z,0.5
2022-11-05T08:26:31.377Z,0.5
2022-11-05T08:29:12.002Z,0.2
2022-11-05T08:31:42.603Z,0.0
2022-11-05T08:34:13.689Z,0.0
2022-11-05T08:36:44.291Z,0.0
2022-11-05T08:39:17.023Z,0.0
2022-11-05T08:41:47.803Z,0.0
2022-11-05T08:44:28.375Z,0.0
2022-11-05T08:47:02.016Z,0.0
2022-11-05T08:49:32.615Z,0.0
2022-11-05T08:54:33.352Z,1.3
2022-11-05T08:57:03.920Z,0.8
2022-11-05T08:59:44.498Z,0.2
2022-11-05T09:02:15.452Z,0.2
2022-11-05T09:04:46.112Z,0.5
2022-11-05T09:07:16.702Z,0.5
2022-11-05T09:09:47.266Z,0.0
2022-11-05T09:12:32.060Z,0.0
2022-11-05T09:14:52.670Z,0.0
2022-11-05T09:17:33.256Z,0.2
2022-11-05T09:20:03.868Z,0.2
2022-11-05T09:22:36.906Z,0.0
2022-11-05T09:24:59.838Z,0.2
2022-11-05T09:27:40.461Z,0.5
2022-11-05T09:30:11.065Z,0.2
2022-11-05T09:35:11.804Z,0.2
2022-11-05T09:37:42.407Z,0.0
2022-11-05T09:40:13.110Z,0.0
2022-11-05T09:42:53.730Z,0.0
2022-11-05T09:45:24.309Z,0.8
2022-11-05T09:47:54.888Z,0.0
2022-11-05T09:50:25.485Z,0.5
2022-11-05T09:52:56.045Z,1.1
2022-11-05T09:55:26.668Z,0.8
2022-11-05T09:58:07.275Z,0.0
2022-11-05T10:00:37.892Z,0.2
2022-11-05T10:03:08.734Z,2.2
2022-11-05T10:05:39.705Z,2.7
2022-11-05T10:08:10.342Z,0.0
2022-11-05T10:10:41.473Z,0.5
2022-11-05T10:15:52.288Z,0.2
2022-11-05T10:18:22.859Z,0.8
2022-11-05T10:20:53.440Z,0.8
2022-11-05T10:23:24.433Z,1.1
2022-11-05T10:25:55.072Z,0.5
2022-11-05T10:28:35.679Z,0.0
2022-11-05T10:31:06.308Z,0.5
2022-11-05T10:33:36.893Z,0.5
2022-11-05T10:36:07.460Z,0.0
2022-11-05T10:38:48.062Z,0.0
2022-11-05T10:41:28.664Z,0.0
2022-11-05T10:43:59.261Z,0.0
2022-11-05T10:46:29.839Z,0.0
2022-11-05T10:49:04.249Z,0.5
2022-11-05T10:51:24.845Z,0.0
2022-11-05T10:56:35.575Z,0.0
2022-11-05T10:59:11.025Z,0.0
2022-11-05T11:01:43.131Z,0.5
2022-11-05T11:04:13.787Z,0.2
2022-11-05T11:06:44.400Z,0.8
2022-11-05T11:09:14.985Z,0.0
2022-11-05T11:11:55.586Z,0.0
2022-11-05T11:14:26.220Z,0.0
2022-11-05T11:16:56.821Z,0.0
2022-11-05T11:19:27.453Z,0.5
2022-11-05T11:21:58.030Z,0.0
2022-11-05T11:24:33.341Z,0.0
2022-11-05T11:27:04.087Z,0.0
2022-11-05T11:29:34.707Z,0.0
2022-11-05T11:32:05.300Z,0.0
2022-11-05T11:37:05.998Z,0.2
2022-11-05T11:39:56.605Z,0.5
2022-11-05T11:42:27.193Z,0.8
2022-11-05T11:44:57.802Z,1.1
2022-11-05T11:47:28.381Z,1.1
2022-11-05T11:49:59.001Z,0.5
2022-11-05T11:52:29.582Z,1.3
2022-11-05T11:55:10.238Z,1.9
2022-11-05T11:57:40.824Z,1.6
2022-11-05T12:00:29.050Z,1.3
2022-11-05T12:02:39.986Z,1.6
2022-11-05T12:05:10.649Z,2.5
2022-11-05T12:07:41.246Z,1.6
2022-11-05T12:10:21.841Z,1.1
2022-11-05T12:12:52.432Z,0.8
2022-11-05T12:17:53.165Z,0.5
2022-11-05T12:20:23.864Z,1.1
2022-11-05T12:22:54.447Z,1.3
2022-11-05T12:25:35.071Z,1.1
2022-11-05T12:28:05.681Z,1.1
2022-11-05T12:30:36.314Z,0.5
2022-11-05T12:33:07.283Z,0.0
2022-11-05T12:35:39.676Z,0.5
2022-11-05T12:38:13.354Z,0.8
2022-11-05T12:40:53.967Z,1.3
2022-11-05T12:43:30.837Z,2.7
2022-11-05T12:45:51.423Z,1.1
2022-11-05T12:48:24.906Z,0.0
2022-11-05T12:50:57.663Z,1.3
2022-11-05T12:53:28.266Z,0.0
2022-11-05T12:58:38.969Z,0.0
2022-11-05T13:01:09.758Z,0.0
2022-11-05T13:03:40.416Z,0.0
2022-11-05T13:06:15.892Z,0.0
2022-11-05T13:08:46.440Z,0.0
2022-11-05T13:11:17.031Z,0.0
2022-11-05T13:13:47.710Z,0.0
2022-11-05T13:16:18.311Z,0.0
2022-11-05T13:18:48.906Z,0.0
2022-11-05T13:21:19.483Z,0.0
2022-11-05T13:24:00.069Z,0.0
2022-11-05T13:26:32.101Z,0.0
2022-11-05T13:29:02.693Z,0.0
2022-11-05T13:31:33.302Z,0.0
2022-11-05T13:34:03.860Z,0.0
2022-11-05T13:39:14.607Z,0.0
2022-11-05T13:41:45.211Z,0.0
2022-11-05T13:44:15.772Z,0.0
2022-11-05T13:46:46.373Z,0.2
2022-11-05T13:49:16.958Z,0.0
2022-11-05T13:51:59.846Z,1.9
2022-11-05T13:54:30.438Z,1.6
2022-11-05T13:57:01.042Z,1.1
2022-11-05T13:59:31.633Z,2.5
2022-11-05T14:02:02.662Z,2.2
2022-11-05T14:04:33.342Z,2.5
2022-11-05T14:07:03.939Z,1.1
2022-11-05T14:09:44.531Z,1.3
2022-11-05T14:12:15.121Z,1.3
2022-11-05T14:14:45.709Z,2.2
2022-11-05T14:19:56.431Z,1.1
2022-11-05T14:22:27.040Z,0.5
2022-11-05T14:25:07.643Z,1.1
2022-11-05T14:27:38.220Z,0.5
2022-11-05T14:30:08.854Z,0.5
2022-11-05T14:32:39.452Z,0.5
2022-11-05T14:35:10.041Z,1.1
2022-11-05T14:37:40.633Z,0.5
2022-11-05T14:40:21.266Z,0.0
2022-11-05T14:42:51.875Z,0.0
2022-11-05T14:45:22.518Z,0.2
2022-11-05T14:47:53.096Z,0.5
2022-11-05T14:50:23.713Z,0.0
2022-11-05T14:53:04.311Z,0.0
2022-11-05T14:55:34.932Z,0.2
2022-11-05T15:00:35.699Z,0.0
2022-11-05T15:03:06.385Z,0.0
2022-11-05T15:05:36.991Z,0.0
2022-11-05T15:08:17.587Z,0.0
2022-11-05T15:10:48.180Z,0.0
2022-11-05T15:13:19.055Z,0.0
2022-11-05T15:15:49.631Z,0.0
2022-11-05T15:18:20.235Z,0.0
2022-11-05T15:20:50.925Z,0.0
2022-11-05T15:23:31.991Z,0.0
2022-11-05T15:26:03.819Z,0.0
2022-11-05T15:28:34.453Z,0.0
2022-11-05T15:31:05.062Z,0.0
2022-11-05T15:33:35.638Z,0.0
2022-11-05T15:36:06.253Z,0.0
2022-11-05T15:41:17.118Z,0.0
2022-11-05T15:43:48.151Z,0.0
2022-11-05T15:46:18.812Z,0.0
2022-11-05T15:48:49.389Z,0.0
2022-11-05T15:51:30.014Z,0.0
2022-11-05T15:54:40.966Z,0.0
2022-11-05T15:56:31.513Z,0.0
2022-11-05T15:59:02.085Z,0.0
2022-11-05T16:01:32.955Z,0.0
2022-11-05T16:04:08.662Z,0.0
2022-11-05T16:06:40.226Z,0.0
2022-11-05T16:09:10.796Z,0.0
2022-11-05T16:11:41.395Z,0.0
2022-11-05T16:14:11.961Z,0.0
2022-11-05T16:16:42.582Z,0.0
2022-11-05T16:22:03.336Z,0.0
2022-11-05T16:24:39.340Z,0.0
2022-11-05T16:27:29.118Z,0.0
2022-11-05T16:29:29.680Z,0.0
2022-11-05T16:32:00.289Z,0.0
2022-11-05T16:34:30.872Z,0.0
2022-11-05T16:37:11.468Z,0.0
2022-11-05T16:39:42.103Z,0.0
2022-11-05T16:42:12.852Z,0.0
2022-11-05T16:44:43.413Z,0.0
2022-11-05T16:47:13.995Z,0.0
2022-11-05T16:49:44.584Z,0.0
2022-11-05T16:52:25.223Z,0.0
2022-11-05T16:54:55.828Z,0.0
2022-11-05T16:57:26.406Z,0.0
2022-11-05T17:02:27.780Z,0.0
2022-11-05T17:05:08.543Z,0.0
2022-11-05T17:07:41.464Z,0.0
2022-11-05T17:10:12.200Z,0.0
2022-11-05T17:12:42.774Z,0.0
2022-11-05T17:15:13.403Z,0.0
2022-11-05T17:17:44.014Z,0.0
2022-11-05T17:20:24.612Z,0.0
2022-11-05T17:22:55.208Z,0.0
2022-11-05T17:25:25.800Z,0.0
2022-11-05T17:27:56.404Z,0.0
2022-11-05T17:30:27.013Z,0.0
2022-11-05T17:32:57.859Z,0.0
2022-11-05T17:35:38.485Z,0.0
2022-11-05T17:38:09.084Z,0.0
2022-11-05T17:43:10.221Z,0.0
2022-11-05T17:45:41.078Z,0.0
2022-11-05T17:48:11.673Z,0.0
2022-11-05T17:50:52.276Z,0.0
2022-11-05T17:53:23.288Z,0.0
2022-11-05T17:55:53.907Z,0.0
2022-11-05T17:58:24.465Z,0.0
2022-11-05T18:00:55.053Z,0.0
2022-11-05T18:03:36.101Z,0.0
2022-11-05T18:06:06.698Z,0.0
2022-11-05T18:08:37.262Z,0.0
2022-11-05T18:11:07.859Z,0.0
2022-11-05T18:13:38.420Z,0.0
2022-11-05T18:16:09.009Z,0.0
2022-11-05T18:18:49.590Z,0.0
2022-11-05T18:24:00.316Z,0.0
2022-11-05T18:26:30.919Z,0.0
2022-11-05T18:29:01.533Z,0.0
2022-11-05T18:31:38.152Z,0.0
2022-11-05T18:34:08.729Z,0.0
2022-11-05T18:36:39.316Z,0.0
2022-11-05T18:39:09.931Z,0.0
2022-11-05T18:41:40.537Z,0.0
2022-11-05T18:44:11.110Z,0.0
2022-11-05T18:47:11.553Z,0.0
2022-11-05T18:49:22.132Z,0.0
2022-11-05T18:51:52.742Z,0.0
2022-11-05T18:54:23.348Z,0.0
2022-11-05T18:56:53.911Z,0.0
2022-11-05T18:59:55.385Z,0.0
2022-11-05T19:04:36.161Z,0.0
2022-11-05T19:07:11.809Z,0.0
2022-11-05T19:09:42.392Z,0.0
2022-11-05T19:12:12.987Z,0.0
2022-11-05T19:14:43.571Z,0.0
2022-11-05T19:17:24.182Z,0.0
2022-11-05T19:19:54.791Z,0.0
2022-11-05T19:22:25.376Z,0.0
2022-11-05T19:24:55.957Z,0.0
2022-11-05T19:27:26.565Z,0.0
2022-11-05T19:29:57.161Z,0.0
2022-11-05T19:32:37.744Z,0.0
2022-11-05T19:35:08.337Z,0.0
2022-11-05T19:37:38.913Z,0.0
2022-11-05T19:40:09.511Z,0.0
2022-11-05T19:45:43.930Z,0.0
2022-11-05T19:47:55.012Z,0.0
2022-11-05T19:50:25.588Z,0.0
2022-11-05T19:52:56.187Z,0.0
2022-11-05T19:55:32.302Z,0.0
2022-11-05T19:57:52.871Z,0.0
2022-11-05T20:00:24.003Z,0.0
2022-11-05T20:03:05.047Z,0.0
2022-11-05T20:05:35.717Z,0.0
2022-11-05T20:08:13.027Z,0.0
2022-11-05T20:10:33.899Z,0.0
2022-11-05T20:13:19.590Z,0.0
2022-11-05T20:15:40.410Z,0.0
2022-11-05T20:18:21.461Z,0.0
2022-11-05T20:20:52.045Z,0.0
2022-11-05T20:25:52.781Z,0.0
2022-11-05T20:28:23.840Z,0.0
2022-11-05T20:31:04.450Z,0.0
2022-11-05T20:33:35.031Z,0.0
2022-11-05T20:36:05.628Z,0.0
2022-11-05T20:38:36.237Z,0.0
2022-11-05T20:41:06.869Z,0.0
2022-11-05T20:43:40.670Z,0.0
2022-11-05T20:46:21.270Z,0.0
2022-11-05T20:48:51.844Z,0.0
2022-11-05T20:51:22.444Z,0.0
2022-11-05T20:53:53.021Z,0.0
2022-11-05T20:56:28.109Z,0.0
2022-11-05T20:58:48.692Z,0.0
2022-11-05T21:01:39.779Z,0.0
2022-11-05T21:06:40.570Z,0.0
2022-11-05T21:09:11.154Z,0.0
2022-11-05T21:11:41.753Z,0.0
2022-11-05T21:14:12.334Z,0.0
2022-11-05T21:16:52.946Z,0.0
2022-11-05T21:19:23.936Z,0.0
2022-11-05T21:21:59.051Z,0.0
2022-11-05T21:24:19.614Z,0.0
2022-11-05T21:26:50.233Z,0.0
2022-11-05T21:29:20.836Z,0.0
2022-11-05T21:32:01.482Z,0.0
2022-11-05T21:34:32.054Z,0.0
2022-11-05T21:37:02.656Z,0.0
2022-11-05T21:39:34.249Z,0.0
2022-11-05T21:42:04.872Z,0.0
2022-11-05T21:47:15.625Z,0.0
2022-11-05T21:49:46.214Z,0.0
2022-11-05T21:52:16.816Z,0.5
2022-11-05T21:54:47.414Z,0.2
2022-11-05T21:57:21.081Z,0.0
2022-11-05T22:00:01.701Z,0.0
2022-11-05T22:02:32.742Z,0.0
2022-11-05T22:05:03.445Z,0.0
2022-11-05T22:07:34.040Z,0.0
2022-11-05T22:10:04.621Z,0.0
2022-11-05T22:12:35.218Z,0.0
2022-11-05T22:15:15.815Z,0.0
2022-11-05T22:17:47.260Z,0.0
2022-11-05T22:20:17.967Z,0.0
2022-11-05T22:22:48.541Z,0.0
2022-11-05T22:27:49.274Z,0.0
2022-11-05T22:30:29.881Z,0.2
2022-11-05T22:33:00.471Z,0.2
2022-11-05T22:35:31.089Z,0.0
2022-11-05T22:38:01.687Z,0.0
2022-11-05T22:40:34.297Z,0.0
2022-11-05T22:43:05.012Z,0.0
2022-11-05T22:45:45.605Z,0.0
2022-11-05T22:48:17.216Z,0.0
2022-11-05T22:50:47.798Z,0.0
2022-11-05T22:53:18.419Z,0.0
2022-11-05T22:55:49.002Z,0.0
2022-11-05T22:58:29.910Z,0.0
2022-11-05T23:01:00.458Z,0.0
2022-11-05T23:03:31.154Z,0.0
2022-11-05T23:08:32.188Z,0.0
2022-11-05T23:11:02.773Z,0.0
2022-11-05T23:13:43.355Z,0.0
2022-11-05T23:16:13.955Z,0.0
2022-11-05T23:18:44.561Z,0.0
2022-11-05T23:21:17.933Z,0.0
2022-11-05T23:23:49.799Z,0.0
2022-11-05T23:26:20.446Z,0.0
2022-11-05T23:29:01.040Z,0.0
2022-11-05T23:31:31.671Z,0.0
2022-11-05T23:34:02.264Z,0.0
2022-11-05T23:36:32.897Z,0.0
2022-11-05T23:39:03.478Z,0.0
2022-11-05T23:41:34.086Z,0.0
2022-11-05T23:44:14.695Z,0.0
2022-11-05T23:49:15.411Z,0.0
2022-11-05T23:51:45.987Z,0.0
2022-11-05T23:54:16.590Z,0.0
2022-11-05T23:56:57.193Z,0.0
2022-11-05T23:59:27.771Z,0.0
